createdAt,value
2019-02-18T00:00:07.299Z,0
2019-02-18T00:01:15.356Z,0
2019-02-18T00:02:23.417Z,0
2019-02-18T00:03:31.450Z,0
2019-02-18T00:04:39.516Z,0
2019-02-18T00:05:47.570Z,0
2019-02-18T00:06:55.623Z,0
2019-02-18T00:08:03.678Z,0
2019-02-18T00:09:11.709Z,0
2019-02-18T00:10:19.789Z,0
2019-02-18T00:11:27.834Z,0
2019-02-18T00:12:35.887Z,0
2019-02-18T00:13:43.947Z,0
2019-02-18T00:14:51.959Z,0
2019-02-18T00:16:00.038Z,0
2019-02-18T00:17:08.091Z,0
2019-02-18T00:18:16.176Z,0
2019-02-18T00:19:24.196Z,0
2019-02-18T00:20:32.224Z,0
2019-02-18T00:21:40.316Z,0
2019-02-18T00:22:48.349Z,0
2019-02-18T00:23:56.410Z,0
2019-02-18T00:25:04.450Z,0
2019-02-18T00:26:12.513Z,0
2019-02-18T00:27:20.557Z,0
2019-02-18T00:28:28.612Z,0
2019-02-18T00:29:36.665Z,0
2019-02-18T00:30:44.742Z,0
2019-02-18T00:31:52.771Z,0
2019-02-18T00:33:00.802Z,0
2019-02-18T00:34:08.884Z,0
2019-02-18T00:35:16.927Z,0
2019-02-18T00:36:24.980Z,0
2019-02-18T00:37:33.022Z,0
2019-02-18T00:38:41.083Z,0
2019-02-18T00:39:49.141Z,0
2019-02-18T00:40:57.191Z,0
2019-02-18T00:42:05.253Z,0
2019-02-18T00:43:13.291Z,0
2019-02-18T00:44:21.365Z,0
2019-02-18T00:45:29.417Z,0
2019-02-18T00:46:37.446Z,0
2019-02-18T00:47:45.496Z,0
2019-02-18T00:48:53.559Z,0
2019-02-18T00:50:01.575Z,0
2019-02-18T00:51:09.657Z,0
2019-02-18T00:52:17.713Z,0
2019-02-18T00:53:25.772Z,0
2019-02-18T00:54:33.828Z,0
2019-02-18T00:55:41.844Z,0
2019-02-18T00:56:49.908Z,0
2019-02-18T00:57:57.981Z,0
2019-02-18T00:59:06.026Z,0
2019-02-18T01:00:14.077Z,0
2019-02-18T01:01:22.111Z,0
2019-02-18T01:02:30.178Z,0
2019-02-18T01:03:38.227Z,0
2019-02-18T01:04:46.278Z,0
2019-02-18T01:05:54.330Z,0
2019-02-18T01:07:02.371Z,0
2019-02-18T01:08:10.470Z,0
2019-02-18T01:09:18.496Z,0
2019-02-18T01:10:26.546Z,0
2019-02-18T01:11:34.618Z,0
2019-02-18T01:12:42.645Z,0
2019-02-18T01:13:50.700Z,0
2019-02-18T01:14:58.743Z,0
2019-02-18T01:16:06.804Z,0
2019-02-18T01:17:14.867Z,0
2019-02-18T01:18:22.889Z,0
2019-02-18T01:19:30.971Z,0
2019-02-18T01:20:39.029Z,0
2019-02-18T01:21:47.099Z,0
2019-02-18T01:22:55.133Z,0
2019-02-18T01:24:03.174Z,0
2019-02-18T01:25:11.227Z,0
2019-02-18T01:26:19.259Z,0
2019-02-18T01:27:27.422Z,0
2019-02-18T01:28:35.376Z,0
2019-02-18T01:29:43.436Z,0
2019-02-18T01:30:51.447Z,0
2019-02-18T01:31:59.542Z,0
2019-02-18T01:33:07.591Z,0
2019-02-18T01:34:15.641Z,0
2019-02-18T01:35:23.724Z,0
2019-02-18T01:36:31.711Z,0
2019-02-18T01:37:45.482Z,0
2019-02-18T01:38:47.854Z,0
2019-02-18T01:39:55.899Z,0
2019-02-18T01:41:03.948Z,0
2019-02-18T01:42:11.966Z,0
2019-02-18T01:43:20.064Z,0
2019-02-18T01:44:28.109Z,0
2019-02-18T01:45:36.159Z,0
2019-02-18T01:46:44.206Z,0
2019-02-18T01:47:52.242Z,0
2019-02-18T01:49:00.322Z,0
2019-02-18T01:50:08.409Z,0
2019-02-18T01:51:16.420Z,0
2019-02-18T01:52:24.476Z,0
2019-02-18T01:53:32.503Z,0
2019-02-18T01:54:40.567Z,0
2019-02-18T01:55:48.636Z,0
2019-02-18T01:56:56.693Z,0
2019-02-18T01:58:04.729Z,0
2019-02-18T01:59:12.794Z,0
2019-02-18T02:00:20.834Z,0
2019-02-18T02:01:28.885Z,0
2019-02-18T02:02:36.932Z,0
2019-02-18T02:03:44.991Z,0
2019-02-18T02:04:53.038Z,0
2019-02-18T02:06:01.087Z,0
2019-02-18T02:07:09.146Z,0
2019-02-18T02:08:17.186Z,0
2019-02-18T02:09:25.269Z,0
2019-02-18T02:10:33.317Z,0
2019-02-18T02:11:41.337Z,0
2019-02-18T02:12:49.405Z,0
2019-02-18T02:13:57.446Z,0
2019-02-18T02:15:05.519Z,0
2019-02-18T02:16:13.554Z,0
2019-02-18T02:17:21.578Z,0
2019-02-18T02:18:29.667Z,0
2019-02-18T02:19:37.730Z,0
2019-02-18T02:20:45.781Z,0
2019-02-18T02:21:53.830Z,0
2019-02-18T02:23:01.852Z,0
2019-02-18T02:24:09.933Z,0
2019-02-18T02:25:17.983Z,0
2019-02-18T02:26:26.025Z,0
2019-02-18T02:27:34.082Z,0
2019-02-18T02:28:42.120Z,0
2019-02-18T02:29:50.189Z,0
2019-02-18T02:31:00.499Z,0
2019-02-18T02:32:06.282Z,0
2019-02-18T02:33:14.337Z,0
2019-02-18T02:34:22.373Z,0
2019-02-18T02:35:30.443Z,0
2019-02-18T02:36:38.504Z,0
2019-02-18T02:37:46.569Z,0
2019-02-18T02:38:54.608Z,0
2019-02-18T02:40:02.683Z,0
2019-02-18T02:41:10.703Z,0
2019-02-18T02:42:18.776Z,0
2019-02-18T02:43:26.802Z,0
2019-02-18T02:44:34.865Z,0
2019-02-18T02:45:42.916Z,0
2019-02-18T02:46:50.975Z,0
2019-02-18T02:47:59.017Z,0
2019-02-18T02:49:07.073Z,0
2019-02-18T02:50:15.124Z,0
2019-02-18T02:51:23.178Z,0
2019-02-18T02:52:31.206Z,0
2019-02-18T02:53:39.264Z,0
2019-02-18T02:54:47.317Z,0
2019-02-18T02:55:55.375Z,0
2019-02-18T02:57:03.428Z,0
2019-02-18T02:58:11.461Z,0
2019-02-18T02:59:19.541Z,0
2019-02-18T03:00:27.592Z,0
2019-02-18T03:01:35.640Z,0
2019-02-18T03:02:43.692Z,0
2019-02-18T03:03:51.711Z,0
2019-02-18T03:04:59.815Z,0
2019-02-18T03:06:07.861Z,0
2019-02-18T03:07:15.896Z,0
2019-02-18T03:08:23.956Z,0
2019-02-18T03:09:31.977Z,0
2019-02-18T03:10:40.057Z,0
2019-02-18T03:11:48.118Z,0
2019-02-18T03:12:56.149Z,0
2019-02-18T03:14:04.212Z,0
2019-02-18T03:15:12.226Z,0
2019-02-18T03:16:20.314Z,0
2019-02-18T03:17:28.360Z,0
2019-02-18T03:18:36.425Z,0
2019-02-18T03:19:44.472Z,0
2019-02-18T03:20:52.515Z,0
2019-02-18T03:22:00.556Z,0
2019-02-18T03:23:08.649Z,0
2019-02-18T03:24:16.675Z,0
2019-02-18T03:25:24.716Z,0
2019-02-18T03:26:32.774Z,0
2019-02-18T03:27:40.836Z,0
2019-02-18T03:28:48.885Z,0
2019-02-18T03:29:56.927Z,0
2019-02-18T03:31:04.976Z,0
2019-02-18T03:32:13.039Z,0
2019-02-18T03:33:21.120Z,0
2019-02-18T03:34:29.152Z,0
2019-02-18T03:35:37.194Z,0
2019-02-18T03:36:45.249Z,0
2019-02-18T03:37:53.290Z,0
2019-02-18T03:39:01.343Z,0
2019-02-18T03:40:09.385Z,0
2019-02-18T03:41:17.454Z,0
2019-02-18T03:42:25.487Z,0
2019-02-18T03:43:33.549Z,0
2019-02-18T03:44:41.574Z,0
2019-02-18T03:45:49.648Z,0
2019-02-18T03:46:57.707Z,0
2019-02-18T03:48:05.767Z,0
2019-02-18T03:49:13.803Z,0
2019-02-18T03:50:21.847Z,0
2019-02-18T03:51:29.909Z,0
2019-02-18T03:52:37.964Z,0
2019-02-18T03:53:46.006Z,0
2019-02-18T03:54:54.053Z,0
2019-02-18T03:56:02.086Z,0
2019-02-18T03:57:10.161Z,0
2019-02-18T03:58:18.256Z,0
2019-02-18T03:59:26.278Z,0
2019-02-18T04:00:34.322Z,0
2019-02-18T04:01:42.353Z,0
2019-02-18T04:02:50.435Z,0
2019-02-18T04:03:58.482Z,0
2019-02-18T04:05:06.543Z,0
2019-02-18T04:06:14.584Z,0
2019-02-18T04:07:22.625Z,0
2019-02-18T04:08:30.681Z,0
2019-02-18T04:09:38.739Z,0
2019-02-18T04:10:46.781Z,0
2019-02-18T04:11:54.845Z,0
2019-02-18T04:13:02.893Z,0
2019-02-18T04:14:10.938Z,0
2019-02-18T04:15:18.988Z,0
2019-02-18T04:16:27.034Z,0
2019-02-18T04:17:35.105Z,0
2019-02-18T04:18:43.152Z,0
2019-02-18T04:19:51.200Z,0
2019-02-18T04:20:59.302Z,0
2019-02-18T04:22:07.310Z,0
2019-02-18T04:23:15.377Z,0
2019-02-18T04:24:23.429Z,0
2019-02-18T04:25:31.446Z,0
2019-02-18T04:26:39.519Z,0
2019-02-18T04:27:47.556Z,0
2019-02-18T04:28:55.606Z,0
2019-02-18T04:30:03.658Z,0
2019-02-18T04:31:11.693Z,0
2019-02-18T04:32:19.763Z,0
2019-02-18T04:33:27.813Z,0
2019-02-18T04:34:35.914Z,0
2019-02-18T04:35:43.958Z,0
2019-02-18T04:36:51.941Z,0
2019-02-18T04:38:00.024Z,0
2019-02-18T04:39:08.078Z,0
2019-02-18T04:40:16.140Z,0
2019-02-18T04:41:24.189Z,0
2019-02-18T04:42:32.214Z,0
2019-02-18T04:43:42.073Z,0
2019-02-18T04:44:48.353Z,0
2019-02-18T04:45:56.393Z,0
2019-02-18T04:47:04.445Z,0
2019-02-18T04:48:12.491Z,0
2019-02-18T04:49:20.591Z,0
2019-02-18T04:50:28.594Z,0
2019-02-18T04:51:36.656Z,0
2019-02-18T04:52:44.698Z,0
2019-02-18T04:53:52.765Z,0
2019-02-18T04:55:00.813Z,0
2019-02-18T04:56:08.862Z,0
2019-02-18T04:57:16.911Z,0
2019-02-18T04:58:29.344Z,0
2019-02-18T04:59:33.022Z,0
2019-02-18T05:00:41.065Z,0
2019-02-18T05:01:49.109Z,0
2019-02-18T05:02:57.165Z,0
2019-02-18T05:04:05.251Z,0
2019-02-18T05:05:13.269Z,0
2019-02-18T05:06:21.313Z,0
2019-02-18T05:07:29.367Z,0
2019-02-18T05:08:37.421Z,0
2019-02-18T05:09:45.466Z,0
2019-02-18T05:10:53.566Z,0
2019-02-18T05:12:01.551Z,0
2019-02-18T05:13:09.622Z,0
2019-02-18T05:14:17.684Z,0
2019-02-18T05:15:25.724Z,0
2019-02-18T05:16:33.794Z,0
2019-02-18T05:17:41.804Z,0
2019-02-18T05:18:49.879Z,0
2019-02-18T05:19:57.940Z,0
2019-02-18T05:21:05.986Z,0
2019-02-18T05:22:14.041Z,0
2019-02-18T05:23:22.062Z,0
2019-02-18T05:24:30.140Z,0
2019-02-18T05:25:38.198Z,0
2019-02-18T05:26:46.243Z,0
2019-02-18T05:27:54.955Z,0
2019-02-18T05:29:02.642Z,0
2019-02-18T05:30:10.397Z,0
2019-02-18T05:31:18.450Z,0
2019-02-18T05:32:26.512Z,0
2019-02-18T05:33:34.564Z,0
2019-02-18T05:34:42.609Z,0
2019-02-18T05:35:50.655Z,0
2019-02-18T05:36:58.727Z,0
2019-02-18T05:38:06.764Z,0
2019-02-18T05:39:17.703Z,0
2019-02-18T05:40:22.894Z,0
2019-02-18T05:41:31.146Z,0
2019-02-18T05:42:38.974Z,0
2019-02-18T05:43:47.023Z,0
2019-02-18T05:44:55.074Z,0
2019-02-18T05:46:03.612Z,0
2019-02-18T05:47:11.161Z,0
2019-02-18T05:48:19.234Z,0
2019-02-18T05:49:27.273Z,0
2019-02-18T05:50:35.326Z,0
2019-02-18T05:51:43.383Z,0
2019-02-18T05:52:51.415Z,0
2019-02-18T05:53:59.483Z,0
2019-02-18T05:55:07.532Z,0
2019-02-18T05:56:15.584Z,0
2019-02-18T05:57:23.626Z,0
2019-02-18T05:58:31.663Z,0
2019-02-18T05:59:39.744Z,0
2019-02-18T06:00:47.798Z,0
2019-02-18T06:01:55.845Z,0
2019-02-18T06:03:03.909Z,0
2019-02-18T06:04:11.938Z,0
2019-02-18T06:05:20.186Z,0
2019-02-18T06:06:28.064Z,0
2019-02-18T06:07:36.106Z,0
2019-02-18T06:08:44.152Z,0
2019-02-18T06:09:52.174Z,0
2019-02-18T06:11:00.262Z,0
2019-02-18T06:12:08.299Z,0
2019-02-18T06:13:16.349Z,0
2019-02-18T06:14:24.399Z,0
2019-02-18T06:15:32.453Z,0
2019-02-18T06:16:40.528Z,0
2019-02-18T06:17:48.555Z,0
2019-02-18T06:18:56.612Z,0
2019-02-18T06:20:04.678Z,5
2019-02-18T06:21:12.719Z,5
2019-02-18T06:22:20.774Z,5
2019-02-18T06:23:28.815Z,5
2019-02-18T06:24:36.878Z,5
2019-02-18T06:25:44.913Z,5
2019-02-18T06:26:52.960Z,10
2019-02-18T06:28:01.037Z,10
2019-02-18T06:29:09.086Z,10
2019-02-18T06:30:17.120Z,10
2019-02-18T06:31:25.192Z,15
2019-02-18T06:32:33.221Z,15
2019-02-18T06:33:41.282Z,15
2019-02-18T06:34:49.316Z,15
2019-02-18T06:35:57.387Z,20
2019-02-18T06:37:05.446Z,20
2019-02-18T06:38:13.494Z,20
2019-02-18T06:39:21.549Z,20
2019-02-18T06:40:29.590Z,25
2019-02-18T06:41:37.638Z,25
2019-02-18T06:42:45.702Z,25
2019-02-18T06:43:53.745Z,30
2019-02-18T06:45:01.780Z,30
2019-02-18T06:46:09.856Z,30
2019-02-18T06:47:17.907Z,35
2019-02-18T06:48:25.947Z,35
2019-02-18T06:49:33.991Z,35
2019-02-18T06:50:42.015Z,40
2019-02-18T06:51:50.098Z,40
2019-02-18T06:52:58.146Z,40
2019-02-18T06:54:06.205Z,40
2019-02-18T06:55:14.261Z,45
2019-02-18T06:56:22.282Z,45
2019-02-18T06:57:30.351Z,45
2019-02-18T06:58:38.400Z,50
2019-02-18T06:59:46.453Z,50
2019-02-18T07:00:54.508Z,50
2019-02-18T07:02:02.549Z,50
2019-02-18T07:03:10.591Z,55
2019-02-18T07:04:18.671Z,55
2019-02-18T07:05:26.705Z,60
2019-02-18T07:06:34.764Z,65
2019-02-18T07:07:42.809Z,90
2019-02-18T07:08:50.872Z,125
2019-02-18T07:09:58.910Z,135
2019-02-18T07:11:06.976Z,125
2019-02-18T07:12:15.012Z,120
2019-02-18T07:13:23.077Z,115
2019-02-18T07:14:31.129Z,110
2019-02-18T07:15:39.183Z,110
2019-02-18T07:16:47.228Z,110
2019-02-18T07:17:55.289Z,105
2019-02-18T07:19:03.350Z,110
2019-02-18T07:20:11.378Z,110
2019-02-18T07:21:19.415Z,100
2019-02-18T07:22:27.485Z,100
2019-02-18T07:23:35.543Z,100
2019-02-18T07:24:43.600Z,95
2019-02-18T07:25:51.639Z,105
2019-02-18T07:26:59.691Z,110
2019-02-18T07:28:07.773Z,110
2019-02-18T07:29:15.808Z,100
2019-02-18T07:30:23.888Z,90
2019-02-18T07:31:31.903Z,105
2019-02-18T07:32:39.983Z,100
2019-02-18T07:33:48.034Z,100
2019-02-18T07:34:56.093Z,105
2019-02-18T07:36:04.247Z,110
2019-02-18T07:37:12.179Z,120
2019-02-18T07:38:20.245Z,120
2019-02-18T07:39:28.294Z,115
2019-02-18T07:40:36.353Z,110
2019-02-18T07:41:44.420Z,105
2019-02-18T07:42:52.465Z,110
2019-02-18T07:44:00.512Z,115
2019-02-18T07:45:08.569Z,110
2019-02-18T07:46:16.635Z,110
2019-02-18T07:47:24.713Z,110
2019-02-18T07:48:32.729Z,110
2019-02-18T07:49:40.804Z,115
2019-02-18T07:50:48.847Z,115
2019-02-18T07:51:56.891Z,115
2019-02-18T07:53:04.950Z,115
2019-02-18T07:54:13.009Z,115
2019-02-18T07:55:21.083Z,115
2019-02-18T07:56:29.121Z,105
2019-02-18T07:57:37.178Z,105
2019-02-18T07:58:45.237Z,105
2019-02-18T07:59:53.278Z,105
2019-02-18T08:01:01.338Z,105
2019-02-18T08:02:09.377Z,105
2019-02-18T08:03:17.444Z,105
2019-02-18T08:04:25.574Z,105
2019-02-18T08:05:33.566Z,105
2019-02-18T08:06:41.592Z,105
2019-02-18T08:07:49.668Z,105
2019-02-18T08:08:57.738Z,105
2019-02-18T08:10:11.952Z,110
2019-02-18T08:11:13.850Z,110
2019-02-18T08:12:21.866Z,110
2019-02-18T08:13:29.953Z,110
2019-02-18T08:14:37.999Z,110
2019-02-18T08:15:46.054Z,110
2019-02-18T08:16:54.141Z,110
2019-02-18T08:18:02.153Z,110
2019-02-18T08:19:10.226Z,110
2019-02-18T08:20:18.286Z,110
2019-02-18T08:21:26.328Z,110
2019-02-18T08:22:34.402Z,110
2019-02-18T08:23:42.474Z,110
2019-02-18T08:24:50.493Z,115
2019-02-18T08:25:58.554Z,115
2019-02-18T08:27:06.658Z,115
2019-02-18T08:28:14.677Z,115
2019-02-18T08:29:22.718Z,115
2019-02-18T08:30:30.770Z,115
2019-02-18T08:31:38.832Z,115
2019-02-18T08:32:46.886Z,115
2019-02-18T08:33:54.946Z,115
2019-02-18T08:35:03.012Z,115
2019-02-18T08:36:11.057Z,115
2019-02-18T08:37:19.115Z,115
2019-02-18T08:38:27.166Z,115
2019-02-18T08:39:35.219Z,115
2019-02-18T08:40:43.283Z,115
2019-02-18T08:41:51.338Z,120
2019-02-18T08:42:59.392Z,120
2019-02-18T08:44:07.442Z,120
2019-02-18T08:45:15.510Z,120
2019-02-18T08:46:23.562Z,120
2019-02-18T08:47:31.576Z,120
2019-02-18T08:48:39.665Z,120
2019-02-18T08:49:47.728Z,120
2019-02-18T08:50:55.772Z,120
2019-02-18T08:52:03.824Z,120
2019-02-18T08:53:11.858Z,120
2019-02-18T08:54:19.974Z,120
2019-02-18T08:55:27.993Z,120
2019-02-18T08:56:36.050Z,120
2019-02-18T08:57:44.106Z,120
2019-02-18T08:58:52.154Z,120
2019-02-18T09:00:00.227Z,120
2019-02-18T09:01:08.268Z,120
2019-02-18T09:02:16.326Z,125
2019-02-18T09:03:24.394Z,125
2019-02-18T09:04:32.444Z,125
2019-02-18T09:05:40.499Z,125
2019-02-18T09:06:48.554Z,125
2019-02-18T09:07:56.606Z,125
2019-02-18T09:09:04.703Z,125
2019-02-18T09:10:12.731Z,125
2019-02-18T09:11:20.800Z,125
2019-02-18T09:12:28.842Z,125
2019-02-18T09:13:36.897Z,125
2019-02-18T09:14:44.954Z,125
2019-02-18T09:15:59.918Z,125
2019-02-18T09:17:01.066Z,125
2019-02-18T09:18:09.120Z,125
2019-02-18T09:19:17.177Z,125
2019-02-18T09:20:25.660Z,125
2019-02-18T09:21:33.304Z,125
2019-02-18T09:22:41.335Z,125
2019-02-18T09:23:49.396Z,125
2019-02-18T09:24:57.456Z,125
2019-02-18T09:26:05.517Z,125
2019-02-18T09:27:13.565Z,125
2019-02-18T09:28:21.597Z,125
2019-02-18T09:29:29.692Z,125
2019-02-18T09:30:37.737Z,125
2019-02-18T09:31:45.791Z,125
2019-02-18T09:32:53.856Z,125
2019-02-18T09:34:01.892Z,130
2019-02-18T09:35:09.967Z,125
2019-02-18T09:36:18.025Z,125
2019-02-18T09:37:26.077Z,125
2019-02-18T09:38:34.151Z,125
2019-02-18T09:39:42.193Z,125
2019-02-18T09:40:51.579Z,125
2019-02-18T09:41:58.313Z,125
2019-02-18T09:43:06.364Z,125
2019-02-18T09:44:14.466Z,125
2019-02-18T09:45:22.478Z,125
2019-02-18T09:46:30.556Z,125
2019-02-18T09:47:38.610Z,125
2019-02-18T09:48:46.656Z,125
2019-02-18T09:49:54.735Z,125
2019-02-18T09:51:02.779Z,125
2019-02-18T09:52:10.860Z,125
2019-02-18T09:53:18.887Z,125
2019-02-18T09:54:26.945Z,125
2019-02-18T09:55:35.008Z,125
2019-02-18T09:56:43.064Z,125
2019-02-18T09:57:51.113Z,125
2019-02-18T09:58:59.193Z,125
2019-02-18T10:00:07.222Z,125
2019-02-18T10:01:15.295Z,125
2019-02-18T10:02:23.342Z,125
2019-02-18T10:03:31.789Z,125
2019-02-18T10:04:39.454Z,125
2019-02-18T10:05:47.512Z,125
2019-02-18T10:06:55.575Z,125
2019-02-18T10:08:03.648Z,125
2019-02-18T10:09:11.672Z,125
2019-02-18T10:10:19.759Z,125
2019-02-18T10:11:27.807Z,125
2019-02-18T10:12:35.862Z,125
2019-02-18T10:13:43.915Z,125
2019-02-18T10:14:51.968Z,125
2019-02-18T10:16:00.035Z,125
2019-02-18T10:17:08.094Z,125
2019-02-18T10:18:16.149Z,125
2019-02-18T10:19:24.212Z,125
2019-02-18T10:20:32.235Z,125
2019-02-18T10:21:40.320Z,125
2019-02-18T10:22:48.388Z,125
2019-02-18T10:23:56.448Z,125
2019-02-18T10:25:04.500Z,125
2019-02-18T10:26:12.546Z,125
2019-02-18T10:27:20.627Z,125
2019-02-18T10:28:28.681Z,125
2019-02-18T10:29:36.739Z,125
2019-02-18T10:30:44.786Z,125
2019-02-18T10:31:52.846Z,125
2019-02-18T10:33:00.915Z,125
2019-02-18T10:34:08.977Z,125
2019-02-18T10:35:17.030Z,125
2019-02-18T10:36:25.084Z,125
2019-02-18T10:37:33.162Z,125
2019-02-18T10:38:41.195Z,125
2019-02-18T10:39:49.280Z,125
2019-02-18T10:41:06.348Z,125
2019-02-18T10:42:05.401Z,125
2019-02-18T10:43:13.463Z,125
2019-02-18T10:44:21.491Z,125
2019-02-18T10:45:29.567Z,125
2019-02-18T10:46:37.621Z,125
2019-02-18T10:47:45.690Z,125
2019-02-18T10:48:53.756Z,125
2019-02-18T10:50:01.768Z,125
2019-02-18T10:51:09.856Z,125
2019-02-18T10:52:17.925Z,125
2019-02-18T10:53:25.977Z,125
2019-02-18T10:54:34.046Z,125
2019-02-18T10:55:42.110Z,125
2019-02-18T10:56:50.164Z,125
2019-02-18T10:57:58.211Z,125
2019-02-18T10:59:06.272Z,125
2019-02-18T11:00:14.327Z,125
2019-02-18T11:01:22.383Z,125
2019-02-18T11:02:30.450Z,125
2019-02-18T11:03:38.514Z,125
2019-02-18T11:04:46.551Z,125
2019-02-18T11:05:54.617Z,125
2019-02-18T11:07:02.681Z,125
2019-02-18T11:08:10.735Z,125
2019-02-18T11:09:18.792Z,130
2019-02-18T11:10:26.858Z,130
2019-02-18T11:11:34.906Z,130
2019-02-18T11:12:42.982Z,130
2019-02-18T11:13:51.046Z,125
2019-02-18T11:14:59.104Z,125
2019-02-18T11:16:07.158Z,125
2019-02-18T11:17:15.215Z,125
2019-02-18T11:18:23.272Z,125
2019-02-18T11:19:31.324Z,125
2019-02-18T11:20:39.403Z,125
2019-02-18T11:21:47.468Z,125
2019-02-18T11:22:55.520Z,125
2019-02-18T11:24:03.576Z,125
2019-02-18T11:25:11.623Z,130
2019-02-18T11:26:19.693Z,125
2019-02-18T11:27:27.748Z,125
2019-02-18T11:28:35.818Z,125
2019-02-18T11:29:43.890Z,125
2019-02-18T11:30:51.934Z,125
2019-02-18T11:32:00.018Z,125
2019-02-18T11:33:08.048Z,125
2019-02-18T11:34:16.106Z,125
2019-02-18T11:35:24.172Z,125
2019-02-18T11:36:32.197Z,125
2019-02-18T11:37:40.288Z,125
2019-02-18T11:38:48.341Z,125
2019-02-18T11:39:56.437Z,125
2019-02-18T11:41:04.467Z,125
2019-02-18T11:42:12.529Z,125
2019-02-18T11:43:20.580Z,125
2019-02-18T11:44:28.646Z,125
2019-02-18T11:45:36.697Z,125
2019-02-18T11:46:44.814Z,125
2019-02-18T11:47:52.824Z,125
2019-02-18T11:49:00.877Z,125
2019-02-18T11:50:08.955Z,125
2019-02-18T11:51:17.008Z,125
2019-02-18T11:52:25.063Z,125
2019-02-18T11:53:33.120Z,125
2019-02-18T11:54:41.171Z,125
2019-02-18T11:55:49.249Z,125
2019-02-18T11:56:57.295Z,125
2019-02-18T11:58:05.361Z,125
2019-02-18T11:59:23.602Z,125
2019-02-18T12:00:21.468Z,125
2019-02-18T12:01:29.550Z,125
2019-02-18T12:02:37.638Z,120
2019-02-18T12:03:45.654Z,120
2019-02-18T12:04:53.729Z,120
2019-02-18T12:06:01.757Z,120
2019-02-18T12:07:09.834Z,120
2019-02-18T12:08:17.905Z,120
2019-02-18T12:09:25.968Z,120
2019-02-18T12:10:34.059Z,120
2019-02-18T12:11:42.056Z,120
2019-02-18T12:12:50.130Z,120
2019-02-18T12:13:58.209Z,120
2019-02-18T12:15:06.264Z,120
2019-02-18T12:16:14.326Z,120
2019-02-18T12:17:22.367Z,120
2019-02-18T12:18:30.447Z,120
2019-02-18T12:19:38.513Z,120
2019-02-18T12:20:46.568Z,120
2019-02-18T12:21:54.625Z,120
2019-02-18T12:23:02.686Z,120
2019-02-18T12:24:10.739Z,120
2019-02-18T12:25:18.801Z,120
2019-02-18T12:26:26.870Z,120
2019-02-18T12:27:34.934Z,120
2019-02-18T12:28:45.076Z,120
2019-02-18T12:29:53.250Z,120
2019-02-18T12:30:59.114Z,120
2019-02-18T12:32:07.172Z,120
2019-02-18T12:33:15.223Z,120
2019-02-18T12:34:23.302Z,120
2019-02-18T12:35:33.429Z,120
2019-02-18T12:36:39.420Z,120
2019-02-18T12:37:54.856Z,120
2019-02-18T12:38:55.536Z,120
2019-02-18T12:40:03.592Z,120
2019-02-18T12:41:11.633Z,120
2019-02-18T12:42:19.709Z,120
2019-02-18T12:43:29.341Z,120
2019-02-18T12:44:35.843Z,120
2019-02-18T12:45:43.902Z,120
2019-02-18T12:46:51.940Z,120
2019-02-18T12:48:00.024Z,120
2019-02-18T12:49:08.097Z,120
2019-02-18T12:50:16.147Z,120
2019-02-18T12:51:24.202Z,120
2019-02-18T12:52:32.238Z,120
2019-02-18T12:53:40.332Z,120
2019-02-18T12:54:48.405Z,120
2019-02-18T12:55:56.445Z,120
2019-02-18T12:57:04.502Z,115
2019-02-18T12:58:12.557Z,115
2019-02-18T12:59:20.619Z,115
2019-02-18T13:00:28.683Z,115
2019-02-18T13:01:36.746Z,115
2019-02-18T13:02:45.117Z,115
2019-02-18T13:03:52.885Z,115
2019-02-18T13:05:00.929Z,115
2019-02-18T13:06:08.992Z,115
2019-02-18T13:07:17.065Z,115
2019-02-18T13:08:25.304Z,115
2019-02-18T13:09:33.173Z,115
2019-02-18T13:10:41.262Z,115
2019-02-18T13:11:58.479Z,115
2019-02-18T13:12:57.337Z,115
2019-02-18T13:14:05.411Z,115
2019-02-18T13:15:13.527Z,120
2019-02-18T13:16:21.514Z,115
2019-02-18T13:17:29.600Z,115
2019-02-18T13:18:37.662Z,115
2019-02-18T13:19:45.714Z,120
2019-02-18T13:20:53.793Z,115
2019-02-18T13:22:01.840Z,120
2019-02-18T13:23:09.913Z,115
2019-02-18T13:24:17.974Z,115
2019-02-18T13:25:26.023Z,115
2019-02-18T13:26:34.093Z,115
2019-02-18T13:27:42.123Z,115
2019-02-18T13:28:50.206Z,115
2019-02-18T13:29:58.261Z,115
2019-02-18T13:31:06.337Z,115
2019-02-18T13:32:14.395Z,115
2019-02-18T13:33:22.457Z,115
2019-02-18T13:34:30.522Z,115
2019-02-18T13:35:38.573Z,115
2019-02-18T13:36:46.636Z,115
2019-02-18T13:37:54.695Z,115
2019-02-18T13:39:02.761Z,115
2019-02-18T13:40:10.827Z,110
2019-02-18T13:41:18.877Z,110
2019-02-18T13:42:26.966Z,110
2019-02-18T13:43:34.999Z,110
2019-02-18T13:44:43.087Z,110
2019-02-18T13:45:51.117Z,110
2019-02-18T13:46:59.188Z,110
2019-02-18T13:48:07.245Z,110
2019-02-18T13:49:15.325Z,110
2019-02-18T13:50:23.387Z,110
2019-02-18T13:51:31.415Z,110
2019-02-18T13:52:39.486Z,110
2019-02-18T13:53:47.575Z,110
2019-02-18T13:54:55.610Z,110
2019-02-18T13:56:03.678Z,110
2019-02-18T13:57:11.702Z,110
2019-02-18T13:58:19.835Z,110
2019-02-18T13:59:27.860Z,115
2019-02-18T14:00:35.910Z,110
2019-02-18T14:01:43.993Z,110
2019-02-18T14:02:52.017Z,110
2019-02-18T14:04:00.094Z,110
2019-02-18T14:05:08.148Z,110
2019-02-18T14:06:16.265Z,110
2019-02-18T14:07:24.286Z,110
2019-02-18T14:08:32.325Z,110
2019-02-18T14:09:40.403Z,110
2019-02-18T14:10:48.460Z,110
2019-02-18T14:11:56.537Z,110
2019-02-18T14:13:04.589Z,110
2019-02-18T14:14:12.699Z,105
2019-02-18T14:15:20.709Z,105
2019-02-18T14:16:28.778Z,105
2019-02-18T14:17:36.822Z,105
2019-02-18T14:18:44.893Z,105
2019-02-18T14:19:52.963Z,105
2019-02-18T14:21:01.024Z,105
2019-02-18T14:22:09.068Z,105
2019-02-18T14:23:17.133Z,105
2019-02-18T14:24:25.219Z,105
2019-02-18T14:25:33.261Z,105
2019-02-18T14:26:41.302Z,105
2019-02-18T14:27:49.371Z,105
2019-02-18T14:28:57.445Z,105
2019-02-18T14:30:05.498Z,105
2019-02-18T14:31:13.568Z,105
2019-02-18T14:32:21.594Z,105
2019-02-18T14:33:29.695Z,105
2019-02-18T14:34:37.753Z,105
2019-02-18T14:35:45.809Z,105
2019-02-18T14:36:53.872Z,105
2019-02-18T14:38:01.916Z,105
2019-02-18T14:39:09.998Z,105
2019-02-18T14:40:18.071Z,100
2019-02-18T14:41:26.111Z,100
2019-02-18T14:42:34.188Z,100
2019-02-18T14:43:42.218Z,100
2019-02-18T14:44:51.827Z,100
2019-02-18T14:45:58.357Z,100
2019-02-18T14:47:06.406Z,100
2019-02-18T14:48:14.483Z,100
2019-02-18T14:49:22.574Z,100
2019-02-18T14:50:30.664Z,100
2019-02-18T14:51:38.672Z,100
2019-02-18T14:52:46.767Z,100
2019-02-18T14:53:54.776Z,100
2019-02-18T14:55:02.831Z,100
2019-02-18T14:56:10.900Z,100
2019-02-18T14:57:18.972Z,95
2019-02-18T14:58:27.051Z,95
2019-02-18T14:59:35.094Z,95
2019-02-18T15:00:43.146Z,95
2019-02-18T15:01:51.211Z,95
2019-02-18T15:02:59.277Z,95
2019-02-18T15:04:07.325Z,95
2019-02-18T15:05:15.385Z,95
2019-02-18T15:06:23.451Z,95
2019-02-18T15:07:31.496Z,95
2019-02-18T15:08:39.559Z,95
2019-02-18T15:09:47.639Z,95
2019-02-18T15:10:55.702Z,95
2019-02-18T15:12:03.752Z,95
2019-02-18T15:13:11.776Z,95
2019-02-18T15:14:19.873Z,95
2019-02-18T15:15:27.944Z,95
2019-02-18T15:16:36.028Z,95
2019-02-18T15:17:44.054Z,95
2019-02-18T15:18:52.078Z,95
2019-02-18T15:20:00.203Z,95
2019-02-18T15:21:08.241Z,95
2019-02-18T15:22:16.290Z,90
2019-02-18T15:23:24.359Z,90
2019-02-18T15:24:32.400Z,90
2019-02-18T15:25:40.480Z,90
2019-02-18T15:26:48.524Z,90
2019-02-18T15:27:56.652Z,90
2019-02-18T15:29:04.674Z,85
2019-02-18T15:30:12.713Z,85
2019-02-18T15:31:20.780Z,85
2019-02-18T15:32:28.942Z,85
2019-02-18T15:33:36.922Z,85
2019-02-18T15:34:44.960Z,80
2019-02-18T15:35:53.027Z,80
2019-02-18T15:37:01.066Z,80
2019-02-18T15:38:09.137Z,80
2019-02-18T15:39:17.188Z,75
2019-02-18T15:40:25.252Z,75
2019-02-18T15:41:33.321Z,75
2019-02-18T15:42:42.040Z,75
2019-02-18T15:43:49.490Z,75
2019-02-18T15:44:57.486Z,70
2019-02-18T15:46:05.557Z,70
2019-02-18T15:47:13.672Z,70
2019-02-18T15:48:21.649Z,70
2019-02-18T15:49:29.744Z,70
2019-02-18T15:50:37.800Z,70
2019-02-18T15:51:45.853Z,65
2019-02-18T15:52:53.903Z,65
2019-02-18T15:54:01.941Z,65
2019-02-18T15:55:10.040Z,65
2019-02-18T15:56:18.096Z,65
2019-02-18T15:57:26.152Z,60
2019-02-18T15:58:34.218Z,60
2019-02-18T15:59:42.251Z,60
2019-02-18T16:00:50.344Z,60
2019-02-18T16:01:58.401Z,60
2019-02-18T16:03:06.454Z,55
2019-02-18T16:04:14.515Z,55
2019-02-18T16:05:22.559Z,55
2019-02-18T16:06:30.639Z,55
2019-02-18T16:07:38.685Z,55